createdAt,value
2017-07-14T00:02:18.480Z,2.95
2017-07-14T00:04:47.612Z,2.97
2017-07-14T00:07:16.763Z,3.00
2017-07-14T00:09:45.898Z,2.72
2017-07-14T00:12:15.062Z,2.80
2017-07-14T00:14:44.191Z,2.80
2017-07-14T00:17:13.347Z,3.00
2017-07-14T00:19:42.507Z,2.70
2017-07-14T00:22:11.651Z,2.65
2017-07-14T00:24:40.786Z,2.92
2017-07-14T00:27:09.957Z,3.00
2017-07-14T00:29:39.087Z,3.17
2017-07-14T00:32:08.221Z,2.72
2017-07-14T00:34:37.358Z,3.53
2017-07-14T00:37:06.490Z,2.60
2017-07-14T00:39:35.648Z,2.90
2017-07-14T00:42:04.783Z,2.55
2017-07-14T00:44:33.931Z,2.70
2017-07-14T00:47:03.075Z,2.80
2017-07-14T00:49:32.212Z,3.08
2017-07-14T00:52:01.342Z,2.50
2017-07-14T00:54:30.503Z,2.95
2017-07-14T00:56:59.654Z,2.87
2017-07-14T00:59:28.795Z,3.25
2017-07-14T01:01:57.942Z,3.08
2017-07-14T01:04:27.082Z,2.60
2017-07-14T01:06:56.247Z,2.55
2017-07-14T01:09:25.382Z,3.33
2017-07-14T01:11:54.517Z,3.35
2017-07-14T01:14:23.667Z,3.00
2017-07-14T01:16:52.804Z,3.10
2017-07-14T01:19:21.949Z,2.87
2017-07-14T01:21:51.107Z,3.05
2017-07-14T01:24:20.249Z,2.80
2017-07-14T01:26:49.403Z,2.60
2017-07-14T01:29:18.535Z,2.85
2017-07-14T01:31:47.683Z,3.00
2017-07-14T01:34:16.836Z,2.90
2017-07-14T01:36:45.973Z,2.75
2017-07-14T01:39:15.124Z,2.97
2017-07-14T01:41:44.275Z,3.30
2017-07-14T01:44:13.415Z,3.20
2017-07-14T01:46:42.567Z,2.78
2017-07-14T01:49:11.699Z,3.10
2017-07-14T01:51:40.872Z,2.80
2017-07-14T01:54:10.015Z,2.90
2017-07-14T01:56:39.159Z,3.55
2017-07-14T01:59:08.288Z,2.80
2017-07-14T02:01:37.426Z,2.40
2017-07-14T02:04:06.560Z,2.70
2017-07-14T02:06:35.737Z,2.47
2017-07-14T02:09:05.696Z,3.00
2017-07-14T02:11:34.836Z,2.85
2017-07-14T02:14:03.975Z,2.78
2017-07-14T02:16:33.116Z,3.25
2017-07-14T02:19:02.254Z,2.92
2017-07-14T02:21:31.425Z,3.00
2017-07-14T02:24:00.579Z,3.50
2017-07-14T02:26:29.707Z,2.90
2017-07-14T02:28:58.860Z,3.25
2017-07-14T02:31:28.016Z,2.90
2017-07-14T02:33:57.153Z,2.70
2017-07-14T02:36:26.294Z,2.87
2017-07-14T02:38:55.440Z,2.80
2017-07-14T02:41:24.598Z,3.70
2017-07-14T02:43:53.763Z,2.50
2017-07-14T02:46:22.903Z,3.60
2017-07-14T02:48:52.042Z,3.22
2017-07-14T02:51:21.375Z,2.90
2017-07-14T02:53:50.508Z,3.20
2017-07-14T02:56:19.638Z,3.08
2017-07-14T02:58:48.787Z,2.95
2017-07-14T03:01:17.933Z,2.90
2017-07-14T03:03:47.078Z,3.00
2017-07-14T03:06:16.246Z,2.90
2017-07-14T03:08:45.372Z,2.85
2017-07-14T03:11:14.520Z,3.17
2017-07-14T03:13:43.667Z,3.22
2017-07-14T03:16:12.807Z,2.60
2017-07-14T03:18:41.965Z,3.00
2017-07-14T03:21:11.108Z,3.42
2017-07-14T03:23:40.258Z,2.85
2017-07-14T03:26:09.407Z,3.30
2017-07-14T03:28:38.534Z,2.97
2017-07-14T03:31:07.685Z,3.30
2017-07-14T03:33:36.819Z,2.80
2017-07-14T03:36:06.009Z,2.97
2017-07-14T03:38:35.139Z,2.87
2017-07-14T03:41:04.295Z,3.37
2017-07-14T03:43:33.435Z,3.22
2017-07-14T03:46:02.576Z,3.22
2017-07-14T03:48:31.719Z,2.55
2017-07-14T03:51:00.886Z,3.00
2017-07-14T03:53:30.037Z,3.25
2017-07-14T03:55:59.173Z,2.80
2017-07-14T03:58:28.305Z,3.30
2017-07-14T04:00:57.446Z,2.80
2017-07-14T04:03:26.591Z,2.92
2017-07-14T04:05:55.746Z,3.40
2017-07-14T04:08:24.901Z,3.00
2017-07-14T04:10:54.019Z,2.97
2017-07-14T04:13:23.169Z,3.20
2017-07-14T04:15:52.319Z,3.78
2017-07-14T04:18:21.455Z,3.00
2017-07-14T04:20:50.629Z,3.12
2017-07-14T04:23:19.782Z,2.62
2017-07-14T04:25:48.930Z,3.12
2017-07-14T04:28:18.088Z,3.47
2017-07-14T04:30:47.227Z,2.42
2017-07-14T04:33:16.370Z,2.75
2017-07-14T04:35:45.541Z,2.40
2017-07-14T04:38:14.688Z,2.78
2017-07-14T04:40:43.828Z,3.00
2017-07-14T04:43:12.977Z,3.40
2017-07-14T04:45:42.103Z,3.20
2017-07-14T04:48:11.245Z,3.60
2017-07-14T04:50:40.425Z,3.62
2017-07-14T04:53:09.561Z,2.92
2017-07-14T04:55:38.712Z,3.00
2017-07-14T04:58:07.866Z,3.00
2017-07-14T05:00:37.006Z,2.58
2017-07-14T05:03:06.141Z,3.00
2017-07-14T05:05:35.320Z,3.17
2017-07-14T05:08:04.453Z,3.10
2017-07-14T05:10:33.595Z,3.47
2017-07-14T05:13:02.742Z,2.90
2017-07-14T05:15:31.883Z,2.90
2017-07-14T05:18:01.049Z,2.80
2017-07-14T05:20:30.197Z,2.70
2017-07-14T05:22:59.350Z,3.50
2017-07-14T05:25:28.490Z,3.22
2017-07-14T05:27:57.636Z,2.95
2017-07-14T05:30:26.785Z,2.62
2017-07-14T05:32:55.937Z,3.65
2017-07-14T05:35:25.095Z,2.95
2017-07-14T05:37:54.251Z,3.42
2017-07-14T05:40:23.396Z,3.28
2017-07-14T05:42:52.540Z,2.60
2017-07-14T05:45:21.689Z,3.80
2017-07-14T05:47:50.833Z,2.90
2017-07-14T05:50:20.013Z,2.95
2017-07-14T05:52:49.152Z,3.05
2017-07-14T05:55:18.295Z,3.28
2017-07-14T05:57:47.439Z,2.72
2017-07-14T06:00:16.593Z,3.50
2017-07-14T06:02:45.721Z,2.50
2017-07-14T06:05:14.888Z,2.78
2017-07-14T06:07:44.034Z,2.87
2017-07-14T06:10:13.184Z,2.67
2017-07-14T06:12:42.365Z,2.72
2017-07-14T06:15:11.493Z,3.05
2017-07-14T06:17:40.631Z,3.25
2017-07-14T06:20:09.798Z,3.30
2017-07-14T06:22:38.959Z,2.87
2017-07-14T06:25:08.104Z,3.60
2017-07-14T06:27:37.271Z,3.75
2017-07-14T06:30:06.425Z,4.25
2017-07-14T06:32:35.593Z,3.65
2017-07-14T06:35:04.759Z,3.50
2017-07-14T06:37:33.898Z,3.67
2017-07-14T06:40:03.062Z,3.83
2017-07-14T06:42:32.209Z,4.05
2017-07-14T06:45:01.358Z,3.67
2017-07-14T06:47:30.491Z,3.30
2017-07-14T06:49:59.641Z,4.18
2017-07-14T06:52:28.803Z,3.87
2017-07-14T06:54:57.950Z,4.53
2017-07-14T06:57:27.098Z,4.03
2017-07-14T06:59:56.263Z,4.78
2017-07-14T07:02:25.409Z,3.90
2017-07-14T07:04:54.539Z,3.33
2017-07-14T07:07:24.537Z,3.62
2017-07-14T07:09:53.718Z,3.78
2017-07-14T07:12:22.868Z,3.90
2017-07-14T07:14:52.015Z,3.90
2017-07-14T07:17:21.157Z,3.97
2017-07-14T07:19:50.329Z,3.58
2017-07-14T07:22:19.470Z,3.47
2017-07-14T07:24:48.623Z,3.90
2017-07-14T07:27:17.757Z,3.42
2017-07-14T07:29:46.928Z,3.35
2017-07-14T07:32:16.121Z,3.40
2017-07-14T07:34:45.259Z,3.12
2017-07-14T07:37:14.431Z,3.40
2017-07-14T07:39:43.575Z,3.40
2017-07-14T07:42:12.731Z,4.70
2017-07-14T07:44:41.883Z,3.77
2017-07-14T07:47:16.872Z,3.13
2017-07-14T07:49:46.008Z,3.27
2017-07-14T07:52:15.167Z,3.20
2017-07-14T07:54:44.315Z,3.17
2017-07-14T07:57:13.467Z,3.03
2017-07-14T07:59:42.630Z,3.30
2017-07-14T08:02:11.762Z,3.00
2017-07-14T08:04:40.910Z,2.40
2017-07-14T08:07:10.051Z,3.23
2017-07-14T08:09:39.225Z,3.30
2017-07-14T08:12:08.384Z,2.83
2017-07-14T08:14:37.538Z,2.80
2017-07-14T08:17:06.709Z,3.23
2017-07-14T08:19:35.864Z,3.37
2017-07-14T08:22:05.005Z,2.80
2017-07-14T08:24:34.148Z,3.10
2017-07-14T08:27:03.298Z,3.03
2017-07-14T08:29:32.463Z,3.03
2017-07-14T08:32:01.624Z,3.37
2017-07-14T08:34:30.756Z,3.47
2017-07-14T08:36:59.927Z,3.27
2017-07-14T08:39:29.094Z,3.37
2017-07-14T08:41:58.236Z,3.20
2017-07-14T08:44:27.379Z,3.17
2017-07-14T08:46:56.540Z,3.83
2017-07-14T08:49:25.684Z,3.07
2017-07-14T08:51:54.837Z,3.30
2017-07-14T08:54:23.997Z,3.23
2017-07-14T08:56:53.146Z,3.03
2017-07-14T08:59:22.278Z,3.23
2017-07-14T09:01:51.435Z,3.20
2017-07-14T09:04:20.588Z,3.27
2017-07-14T09:06:49.751Z,3.20
2017-07-14T09:09:18.889Z,3.23
2017-07-14T09:11:48.045Z,3.20
2017-07-14T09:14:17.205Z,3.17
2017-07-14T09:16:46.343Z,3.30
2017-07-14T09:19:15.495Z,3.63
2017-07-14T09:21:44.673Z,2.90
2017-07-14T09:24:13.805Z,2.90
2017-07-14T09:26:42.964Z,3.60
2017-07-14T09:29:12.120Z,3.17
2017-07-14T09:31:41.283Z,3.13
2017-07-14T09:34:10.438Z,3.17
2017-07-14T09:36:39.592Z,3.37
2017-07-14T09:39:08.772Z,3.00
2017-07-14T09:41:37.911Z,3.27
2017-07-14T09:44:07.119Z,3.57
2017-07-14T09:46:36.338Z,3.40
2017-07-14T09:49:05.518Z,3.20
2017-07-14T09:51:34.717Z,3.30
2017-07-14T09:54:03.857Z,2.80
2017-07-14T09:56:32.999Z,2.30
2017-07-14T09:59:02.162Z,2.33
2017-07-14T10:01:31.312Z,2.50
2017-07-14T10:04:00.487Z,2.93
2017-07-14T10:06:29.640Z,3.37
2017-07-14T10:08:58.781Z,2.90
2017-07-14T10:11:27.935Z,2.60
2017-07-14T10:13:57.074Z,2.87
2017-07-14T10:16:26.227Z,3.20
2017-07-14T10:18:55.369Z,2.90
2017-07-14T10:21:24.605Z,2.90
2017-07-14T10:23:53.730Z,2.80
2017-07-14T10:26:22.884Z,3.03
2017-07-14T10:28:52.040Z,2.80
2017-07-14T10:31:21.190Z,3.03
2017-07-14T10:33:50.351Z,3.20
2017-07-14T10:36:19.517Z,3.33
2017-07-14T10:38:48.660Z,3.10
2017-07-14T10:41:17.815Z,2.90
2017-07-14T10:43:46.950Z,2.90
2017-07-14T10:46:16.119Z,3.37
2017-07-14T10:48:45.297Z,2.93
2017-07-14T10:51:14.438Z,2.70
2017-07-14T10:53:43.581Z,3.43
2017-07-14T10:56:12.748Z,2.60
2017-07-14T10:58:41.916Z,2.87
2017-07-14T11:01:11.079Z,3.47
2017-07-14T11:03:40.224Z,2.70
2017-07-14T11:06:09.383Z,3.17
2017-07-14T11:08:38.528Z,2.63
2017-07-14T11:11:07.674Z,2.83
2017-07-14T11:13:36.819Z,2.40
2017-07-14T11:16:05.975Z,2.57
2017-07-14T11:18:35.128Z,2.30
2017-07-14T11:21:04.289Z,2.33
2017-07-14T11:23:33.442Z,2.23
2017-07-14T11:26:02.600Z,2.20
2017-07-14T11:28:31.734Z,2.53
2017-07-14T11:31:00.907Z,2.30
2017-07-14T11:33:30.052Z,2.80
2017-07-14T11:35:59.234Z,2.40
2017-07-14T11:38:28.372Z,2.90
2017-07-14T11:40:57.539Z,2.80
2017-07-14T11:46:02.331Z,2.60
2017-07-14T11:48:31.485Z,2.40
2017-07-14T11:51:00.647Z,2.13
2017-07-14T11:53:29.798Z,2.40
2017-07-14T11:55:58.938Z,2.40
2017-07-14T11:58:28.120Z,2.60
2017-07-14T12:00:57.260Z,2.40
2017-07-14T12:03:26.395Z,2.93
2017-07-14T12:05:55.547Z,2.50
2017-07-14T12:08:24.683Z,2.60
2017-07-14T12:10:53.847Z,2.47
2017-07-14T12:13:22.979Z,2.87
2017-07-14T12:15:52.119Z,3.00
2017-07-14T12:18:21.270Z,2.50
2017-07-14T12:20:50.411Z,2.93
2017-07-14T12:23:19.549Z,2.50
2017-07-14T12:25:48.710Z,2.90
2017-07-14T12:28:17.850Z,2.70
2017-07-14T12:30:46.990Z,2.50
2017-07-14T12:33:16.141Z,3.10
2017-07-14T12:35:45.291Z,2.80
2017-07-14T12:38:14.456Z,3.10
2017-07-14T12:40:43.603Z,2.53
2017-07-14T12:43:12.753Z,2.70
2017-07-14T12:45:41.887Z,2.87
2017-07-14T12:48:11.026Z,3.00
2017-07-14T12:50:40.191Z,2.97
2017-07-14T12:53:09.343Z,2.97
2017-07-14T12:55:38.499Z,2.80
2017-07-14T12:58:07.650Z,3.00
2017-07-14T13:00:36.791Z,2.50
2017-07-14T13:03:05.948Z,3.17
2017-07-14T13:05:35.128Z,2.80
2017-07-14T13:08:04.279Z,2.40
2017-07-14T13:10:33.428Z,2.60
2017-07-14T13:13:02.575Z,2.80
2017-07-14T13:15:31.719Z,2.70
2017-07-14T13:18:00.878Z,3.50
2017-07-14T13:20:30.028Z,3.00
2017-07-14T13:22:59.171Z,2.70
2017-07-14T13:25:29.455Z,2.40
2017-07-14T13:27:58.599Z,3.00
2017-07-14T13:30:27.759Z,4.23
2017-07-14T13:32:56.899Z,3.07
2017-07-14T13:38:01.700Z,2.47
2017-07-14T13:40:30.844Z,2.20
2017-07-14T13:42:59.991Z,2.60
2017-07-14T13:45:29.144Z,2.57
2017-07-14T13:47:58.289Z,2.43
2017-07-14T13:50:27.446Z,2.40
2017-07-14T13:52:56.604Z,2.20
2017-07-14T13:55:25.736Z,2.53
2017-07-14T13:57:54.901Z,2.97
2017-07-14T14:00:24.068Z,2.57
2017-07-14T14:02:53.199Z,2.70
2017-07-14T14:05:22.345Z,2.60
2017-07-14T14:07:51.499Z,2.50
2017-07-14T14:10:20.635Z,2.80
2017-07-14T14:12:49.782Z,3.00
2017-07-14T14:15:18.938Z,3.13
2017-07-14T14:17:48.088Z,2.73
2017-07-14T14:20:17.249Z,3.30
2017-07-14T14:22:46.419Z,3.00
2017-07-14T14:25:15.568Z,2.83
2017-07-14T14:27:44.724Z,2.70
2017-07-14T14:30:13.868Z,2.70
2017-07-14T14:32:43.012Z,3.00
2017-07-14T14:35:12.172Z,2.90
2017-07-14T14:37:41.316Z,3.17
2017-07-14T14:40:10.486Z,2.80
2017-07-14T14:42:39.629Z,3.30
2017-07-14T14:45:08.759Z,4.40
2017-07-14T14:47:37.914Z,3.73
2017-07-14T14:50:07.059Z,3.30
2017-07-14T14:52:36.239Z,3.27
2017-07-14T14:55:05.406Z,3.00
2017-07-14T14:57:34.534Z,3.30
2017-07-14T15:00:03.697Z,3.73
2017-07-14T15:02:32.845Z,3.10
2017-07-14T15:05:01.991Z,3.23
2017-07-14T15:07:31.163Z,3.60
2017-07-14T15:10:00.308Z,3.30
2017-07-14T15:12:29.467Z,7.07
2017-07-14T15:14:58.631Z,3.07
2017-07-14T15:17:27.759Z,3.20
2017-07-14T15:19:56.902Z,3.10
2017-07-14T15:22:26.082Z,3.43
2017-07-14T15:24:55.226Z,3.17
2017-07-14T15:27:24.375Z,3.53
2017-07-14T15:29:53.537Z,3.70
2017-07-14T15:32:22.672Z,3.87
2017-07-14T15:34:51.824Z,3.23
2017-07-14T15:37:20.965Z,4.10
2017-07-14T15:39:50.138Z,3.70
2017-07-14T15:42:19.281Z,3.27
2017-07-14T15:44:48.425Z,3.40
2017-07-14T15:47:17.576Z,3.07
2017-07-14T15:49:46.724Z,3.20
2017-07-14T15:52:15.915Z,3.40
2017-07-14T15:54:45.044Z,3.80
2017-07-14T15:57:14.191Z,3.63
2017-07-14T15:59:43.336Z,3.27
2017-07-14T16:02:12.495Z,3.57
2017-07-14T16:04:41.661Z,3.90
2017-07-14T16:07:10.841Z,3.60
2017-07-14T16:09:39.975Z,4.20
2017-07-14T16:12:09.119Z,3.17
2017-07-14T16:14:38.261Z,3.37
2017-07-14T16:17:07.422Z,3.70
2017-07-14T16:19:36.566Z,3.20
2017-07-14T16:22:05.715Z,2.93
2017-07-14T16:24:34.868Z,3.50
2017-07-14T16:27:04.012Z,3.80
2017-07-14T16:29:33.165Z,3.43
2017-07-14T16:32:02.304Z,3.53
2017-07-14T16:34:31.444Z,3.37
2017-07-14T16:37:00.595Z,3.80
2017-07-14T16:39:29.755Z,3.03
2017-07-14T16:41:58.916Z,3.70
2017-07-14T16:44:28.048Z,3.70
2017-07-14T16:46:57.199Z,3.70
2017-07-14T16:49:26.355Z,3.00
2017-07-14T16:51:55.520Z,4.43
2017-07-14T16:54:24.663Z,3.23
2017-07-14T16:56:53.814Z,4.27
2017-07-14T16:59:22.968Z,3.53
2017-07-14T17:01:52.114Z,3.40
2017-07-14T17:04:21.263Z,3.30
2017-07-14T17:06:50.447Z,3.30
2017-07-14T17:09:19.591Z,3.40
2017-07-14T17:11:48.743Z,3.70
2017-07-14T17:14:17.897Z,3.83
2017-07-14T17:16:47.046Z,2.90
2017-07-14T17:19:16.185Z,3.57
2017-07-14T17:21:45.344Z,4.10
2017-07-14T17:24:14.493Z,3.43
2017-07-14T17:26:43.636Z,3.70
2017-07-14T17:29:12.788Z,3.80
2017-07-14T17:31:41.960Z,3.73
2017-07-14T17:34:11.111Z,4.03
2017-07-14T17:36:40.281Z,5.17
2017-07-14T17:39:09.427Z,4.20
2017-07-14T17:41:38.589Z,3.97
2017-07-14T17:44:07.744Z,5.03
2017-07-14T17:46:36.908Z,3.80
2017-07-14T17:49:06.063Z,3.62
2017-07-14T17:51:35.211Z,3.70
2017-07-14T17:54:04.398Z,3.72
2017-07-14T17:56:33.583Z,4.43
2017-07-14T17:59:02.730Z,4.68
2017-07-14T18:01:31.884Z,3.53
2017-07-14T18:04:01.059Z,4.30
2017-07-14T18:06:30.195Z,4.15
2017-07-14T18:08:59.350Z,3.75
2017-07-14T18:11:28.529Z,3.40
2017-07-14T18:13:57.683Z,3.65
2017-07-14T18:16:26.838Z,5.47
2017-07-14T18:18:55.988Z,3.40
2017-07-14T18:21:25.147Z,3.40
2017-07-14T18:23:54.304Z,3.42
2017-07-14T18:26:23.477Z,3.67
2017-07-14T18:28:52.640Z,3.60
2017-07-14T18:31:21.788Z,3.50
2017-07-14T18:33:50.932Z,3.30
2017-07-14T18:36:20.092Z,3.60
2017-07-14T18:38:49.234Z,3.15
2017-07-14T18:41:18.400Z,3.40
2017-07-14T18:43:47.555Z,3.47
2017-07-14T18:46:16.687Z,3.45
2017-07-14T18:48:45.868Z,3.58
2017-07-14T18:51:15.027Z,3.62
2017-07-14T18:53:44.200Z,3.62
2017-07-14T18:56:13.360Z,3.30
2017-07-14T18:58:42.509Z,3.00
2017-07-14T19:01:11.654Z,3.03
2017-07-14T19:03:40.816Z,3.30
2017-07-14T19:06:09.991Z,3.40
2017-07-14T19:08:39.149Z,3.60
2017-07-14T19:11:08.294Z,3.42
2017-07-14T19:13:37.439Z,3.72
2017-07-14T19:16:07.212Z,3.95
2017-07-14T19:18:36.423Z,3.15
2017-07-14T19:21:05.605Z,2.65
2017-07-14T19:23:34.788Z,3.40
2017-07-14T19:26:03.937Z,3.47
2017-07-14T19:28:33.094Z,4.32
2017-07-14T19:31:02.255Z,4.32
2017-07-14T19:33:31.431Z,3.53
2017-07-14T19:36:00.599Z,3.45
2017-07-14T19:38:29.744Z,4.35
2017-07-14T19:40:58.910Z,3.75
2017-07-14T19:43:28.071Z,3.97
2017-07-14T19:45:57.233Z,4.00
2017-07-14T19:48:26.382Z,3.35
2017-07-14T19:50:55.522Z,3.78
2017-07-14T19:53:24.680Z,3.50
2017-07-14T19:55:53.822Z,3.22
2017-07-14T19:58:22.989Z,2.83
2017-07-14T20:00:52.132Z,2.97
2017-07-14T20:03:21.630Z,3.35
2017-07-14T20:05:50.768Z,3.15
2017-07-14T20:08:19.912Z,2.85
2017-07-14T20:10:49.110Z,3.00
2017-07-14T20:13:18.263Z,2.72
2017-07-14T20:15:47.420Z,3.40
2017-07-14T20:18:16.572Z,3.10
2017-07-14T20:20:45.729Z,2.80
2017-07-14T20:23:14.881Z,2.87
2017-07-14T20:25:44.062Z,2.80
2017-07-14T20:28:13.201Z,2.75
2017-07-14T20:30:42.358Z,2.70
2017-07-14T20:33:11.507Z,2.90
2017-07-14T20:35:40.670Z,2.60
2017-07-14T20:38:09.830Z,2.83
2017-07-14T20:40:38.983Z,2.58
2017-07-14T20:43:08.141Z,3.05
2017-07-14T20:45:37.291Z,2.80
2017-07-14T20:48:06.451Z,2.83
2017-07-14T20:50:35.606Z,2.50
2017-07-14T20:53:04.780Z,2.60
2017-07-14T20:55:33.924Z,3.05
2017-07-14T20:58:03.087Z,2.45
2017-07-14T21:00:32.251Z,2.50
2017-07-14T21:03:01.395Z,2.40
2017-07-14T21:05:30.563Z,3.15
2017-07-14T21:07:59.733Z,3.12
2017-07-14T21:10:28.881Z,2.65
2017-07-14T21:12:58.052Z,3.20
2017-07-14T21:15:27.199Z,3.40
2017-07-14T21:17:56.342Z,2.35
2017-07-14T21:20:25.528Z,3.50
2017-07-14T21:22:54.676Z,3.10
2017-07-14T21:25:23.823Z,3.20
2017-07-14T21:27:52.964Z,3.03
2017-07-14T21:30:22.108Z,2.95
2017-07-14T21:32:51.272Z,3.25
2017-07-14T21:35:20.402Z,3.15
2017-07-14T21:37:49.543Z,3.37
2017-07-14T21:40:18.705Z,3.50
2017-07-14T21:42:47.861Z,3.28
2017-07-14T21:45:16.995Z,3.22
2017-07-14T21:47:46.151Z,3.53
2017-07-14T21:50:15.318Z,2.58
2017-07-14T21:52:44.472Z,3.20
2017-07-14T21:55:13.632Z,3.55
2017-07-14T21:57:42.787Z,3.85
2017-07-14T22:00:11.952Z,3.97
2017-07-14T22:02:41.075Z,4.80
2017-07-14T22:05:10.253Z,4.68
2017-07-14T22:07:39.394Z,4.57
2017-07-14T22:10:08.527Z,4.32
2017-07-14T22:12:37.695Z,5.55
2017-07-14T22:15:06.819Z,4.62
2017-07-14T22:17:35.966Z,5.12
2017-07-14T22:20:05.168Z,5.50
2017-07-14T22:22:34.304Z,5.82
2017-07-14T22:25:03.455Z,5.07
2017-07-14T22:27:32.597Z,5.85
2017-07-14T22:30:01.732Z,5.37
2017-07-14T22:32:30.883Z,5.97
2017-07-14T22:35:00.021Z,5.32
2017-07-14T22:37:29.175Z,6.00
2017-07-14T22:39:58.359Z,5.40
2017-07-14T22:42:27.491Z,5.22
2017-07-14T22:44:56.643Z,5.87
2017-07-14T22:47:25.812Z,6.87
2017-07-14T22:49:54.934Z,6.15
2017-07-14T22:52:24.087Z,6.18
2017-07-14T22:54:53.210Z,4.68
2017-07-14T22:57:22.363Z,6.18
2017-07-14T22:59:51.503Z,6.03
2017-07-14T23:02:20.656Z,4.30
2017-07-14T23:04:49.783Z,5.50
2017-07-14T23:07:18.949Z,5.47
2017-07-14T23:09:48.098Z,5.40
2017-07-14T23:12:17.261Z,5.72
2017-07-14T23:14:46.447Z,6.10
2017-07-14T23:17:15.592Z,5.25
2017-07-14T23:19:44.727Z,5.40
2017-07-14T23:22:13.911Z,5.87
2017-07-14T23:24:43.043Z,5.95
2017-07-14T23:27:12.195Z,6.05
2017-07-14T23:29:41.329Z,6.22
2017-07-14T23:32:10.490Z,4.87
2017-07-14T23:34:39.639Z,5.15
2017-07-14T23:37:08.804Z,5.40
2017-07-14T23:39:37.959Z,6.07
2017-07-14T23:42:07.112Z,5.97
2017-07-14T23:44:36.272Z,6.00
2017-07-14T23:47:05.439Z,5.12
2017-07-14T23:49:34.557Z,5.93
2017-07-14T23:52:03.731Z,5.35
2017-07-14T23:54:32.879Z,5.87
2017-07-14T23:57:02.007Z,5.70
2017-07-14T23:59:31.163Z,5.37
